Aeroporto :
LOGIN :

Iscrizione | Disclaimer

   EN    FR    IT 

 










Sommario :    VFR   VFR Marginale   IFR   IFR Intensivo   IFR Molto Intensivo
Visibilità : 
Base nubi : 
>= 8 km
>= 3000ft
5 / 8 km
1000 / 3000 ft
1500m / 5 km
500 / 1000 ft
800 / 1500m
200 / 500 ft
< 800m
< 200 ft
Simboli :   Temporali  Nebbia  Neve Forte  Precipitazioni Forti  Vento > 20 kt
SIGMETs :   Varie  Temporali  Ghiacco  Turbolenza  Onda orograficha  Ceneri Vulcaniche







- Altitudine del aeroporto : 302 ft
- Codice IATA : CGN


EDDK - Cologne Bonn

ULTIMO METAR :
  • 232120Z 04004KT 010V080 CAVOK 14/07 Q1016 NOSIG

METARs OBSOLETI :
  • 232050Z VRB02KT CAVOK 14/07 Q1016 NOSIG
  • 232020Z 01004KT CAVOK 15/07 Q1016 NOSIG
  • 231950Z VRB02KT CAVOK 15/08 Q1016 NOSIG
  • 231920Z 01003KT CAVOK 18/06 Q1016 NOSIG
  • 231850Z 33005KT CAVOK 18/06 Q1016 NOSIG

TAF TAF EDDK
Valido dal 23 a 18 ore il 25 a 00 ore UTC


231700Z 2318/2424 26005KT CAVOK
BECMG 2318/2320 VRB03KT
BECMG 2409/2411 28006KT
BECMG 2418/2421 34004KT
Nessun NOTAM noto per questo aeroporto.



MetMap, La meteo Aeronautica in un colpo d'occhio ! - Copyright ORBIFLY Dicembre 2007 - Disclaimer

ORBIFLY MET'MAP TEAM :

Programmazione e sviluppo : Alexandra Zaïnal
Concezione e sviluppo : Baudouin d'Aumeries
Co-Programmazione e sviluppo : Marc-Olivier Méhu
Supporto tecnico e logistico : Manuel Goepfert
Aiuto per la traduzione : Arnaldo La Scala

Contatto : metmap@orbifly.com




FONTI E CREDITI :

   NOAA